sensor_id;sensor_type;location;lat;lon;timestamp;pressure;altitude;pressure_sealevel;temperature;humidity
55315;BME280;41619;42.816;23.226;2023-02-04T00:00:16;95379.78;;;0.71;68.02
55315;BME280;41619;42.816;23.226;2023-02-04T00:02:42;95373.59;;;0.70;68.72
55315;BME280;41619;42.816;23.226;2023-02-04T00:05:09;95374.31;;;0.76;67.99
55315;BME280;41619;42.816;23.226;2023-02-04T00:07:35;95371.31;;;0.77;67.93
55315;BME280;41619;42.816;23.226;2023-02-04T00:10:01;95371.81;;;0.79;67.63
55315;BME280;41619;42.816;23.226;2023-02-04T00:12:26;95365.31;;;0.80;67.90
55315;BME280;41619;42.816;23.226;2023-02-04T00:14:52;95367.69;;;0.82;68.32
55315;BME280;41619;42.816;23.226;2023-02-04T00:17:17;95366.59;;;0.83;68.38
55315;BME280;41619;42.816;23.226;2023-02-04T00:19:43;95355.50;;;0.84;67.75
55315;BME280;41619;42.816;23.226;2023-02-04T00:22:08;95362.78;;;0.84;67.83
55315;BME280;41619;42.816;23.226;2023-02-04T00:24:35;95359.00;;;0.85;68.12
55315;BME280;41619;42.816;23.226;2023-02-04T00:27:01;95353.13;;;0.83;67.93
55315;BME280;41619;42.816;23.226;2023-02-04T00:29:27;95354.72;;;0.84;68.12
55315;BME280;41619;42.816;23.226;2023-02-04T00:31:52;95351.72;;;0.85;67.91
55315;BME280;41619;42.816;23.226;2023-02-04T00:34:17;95355.50;;;0.84;68.20
55315;BME280;41619;42.816;23.226;2023-02-04T00:36:43;95349.81;;;0.86;68.48
55315;BME280;41619;42.816;23.226;2023-02-04T00:39:09;95352.03;;;0.84;68.21
55315;BME280;41619;42.816;23.226;2023-02-04T00:41:34;95346.94;;;0.82;68.28
55315;BME280;41619;42.816;23.226;2023-02-04T00:43:59;95344.56;;;0.81;68.16
55315;BME280;41619;42.816;23.226;2023-02-04T00:46:25;95335.97;;;0.79;68.50
55315;BME280;41619;42.816;23.226;2023-02-04T00:48:50;95339.00;;;0.77;68.77
55315;BME280;41619;42.816;23.226;2023-02-04T00:51:16;95328.53;;;0.76;69.02
55315;BME280;41619;42.816;23.226;2023-02-04T00:53:41;95324.72;;;0.77;68.94
55315;BME280;41619;42.816;23.226;2023-02-04T00:56:07;95320.94;;;0.78;68.76
55315;BME280;41619;42.816;23.226;2023-02-04T00:58:32;95315.22;;;0.79;68.61
55315;BME280;41619;42.816;23.226;2023-02-04T01:00:58;95304.44;;;0.79;68.98
55315;BME280;41619;42.816;23.226;2023-02-04T01:03:23;95314.44;;;0.79;68.34
55315;BME280;41619;42.816;23.226;2023-02-04T01:05:48;95313.94;;;0.77;68.39
55315;BME280;41619;42.816;23.226;2023-02-04T01:08:14;95315.06;;;0.76;68.94
55315;BME280;41619;42.816;23.226;2023-02-04T01:10:39;95304.75;;;0.78;69.25
55315;BME280;41619;42.816;23.226;2023-02-04T01:13:05;95297.78;;;0.77;68.86
55315;BME280;41619;42.816;23.226;2023-02-04T01:15:30;95297.78;;;0.77;69.30
55315;BME280;41619;42.816;23.226;2023-02-04T01:17:56;95283.53;;;0.76;68.73
55315;BME280;41619;42.816;23.226;2023-02-04T01:20:21;95267.34;;;0.76;69.04
55315;BME280;41619;42.816;23.226;2023-02-04T01:22:46;95272.44;;;0.78;68.71
55315;BME280;41619;42.816;23.226;2023-02-04T01:25:12;95269.13;;;0.81;68.61
55315;BME280;41619;42.816;23.226;2023-02-04T01:27:37;95273.88;;;0.84;68.61
55315;BME280;41619;42.816;23.226;2023-02-04T01:30:04;95260.72;;;0.82;69.03
55315;BME280;41619;42.816;23.226;2023-02-04T01:32:30;95271.19;;;0.84;68.75
55315;BME280;41619;42.816;23.226;2023-02-04T01:34:55;95270.56;;;0.87;68.89
55315;BME280;41619;42.816;23.226;2023-02-04T01:37:20;95267.56;;;0.88;68.74
55315;BME280;41619;42.816;23.226;2023-02-04T01:39:46;95258.88;;;0.91;68.56
55315;BME280;41619;42.816;23.226;2023-02-04T01:42:11;95261.28;;;0.93;68.49
55315;BME280;41619;42.816;23.226;2023-02-04T01:44:37;95259.38;;;0.94;69.13
55315;BME280;41619;42.816;23.226;2023-02-04T01:47:03;95255.28;;;0.96;68.59
55315;BME280;41619;42.816;23.226;2023-02-04T01:49:30;95248.78;;;0.97;68.18
55315;BME280;41619;42.816;23.226;2023-02-04T01:51:56;95244.97;;;0.98;68.26
55315;BME280;41619;42.816;23.226;2023-02-04T01:54:22;95239.28;;;1.00;68.68
55315;BME280;41619;42.816;23.226;2023-02-04T01:56:48;95230.88;;;1.01;67.95
55315;BME280;41619;42.816;23.226;2023-02-04T01:59:16;95235.16;;;1.02;67.94
55315;BME280;41619;42.816;23.226;2023-02-04T02:01:48;95236.44;;;1.05;68.09
55315;BME280;41619;42.816;23.226;2023-02-04T02:04:17;95215.66;;;1.05;68.06
55315;BME280;41619;42.816;23.226;2023-02-04T02:06:54;95211.38;;;1.04;67.91
55315;BME280;41619;42.816;23.226;2023-02-04T02:09:22;95207.91;;;1.04;67.72
55315;BME280;41619;42.816;23.226;2023-02-04T02:11:47;95207.41;;;1.02;67.63
55315;BME280;41619;42.816;23.226;2023-02-04T02:14:13;95206.44;;;0.98;67.81
55315;BME280;41619;42.816;23.226;2023-02-04T02:16:38;95207.88;;;0.95;68.04
55315;BME280;41619;42.816;23.226;2023-02-04T02:19:06;95197.41;;;0.94;67.93
55315;BME280;41619;42.816;23.226;2023-02-04T02:21:34;95192.81;;;0.94;68.10
55315;BME280;41619;42.816;23.226;2023-02-04T02:24:26;95176.13;;;0.92;68.59
55315;BME280;41619;42.816;23.226;2023-02-04T02:26:52;95167.25;;;0.91;68.15
55315;BME280;41619;42.816;23.226;2023-02-04T02:29:18;95170.25;;;0.90;68.13
55315;BME280;41619;42.816;23.226;2023-02-04T02:31:44;95169.78;;;0.88;68.60
55315;BME280;41619;42.816;23.226;2023-02-04T02:34:09;95143.47;;;0.85;68.43
55315;BME280;41619;42.816;23.226;2023-02-04T02:36:35;95142.97;;;0.83;68.38
55315;BME280;41619;42.816;23.226;2023-02-04T02:39:00;95155.50;;;0.79;68.85
55315;BME280;41619;42.816;23.226;2023-02-04T02:41:26;95146.72;;;0.73;68.91
55315;BME280;41619;42.816;23.226;2023-02-04T02:43:51;95138.78;;;0.68;69.03
55315;BME280;41619;42.816;23.226;2023-02-04T02:46:17;95128.94;;;0.64;69.89
55315;BME280;41619;42.816;23.226;2023-02-04T02:48:42;95137.34;;;0.62;69.22
55315;BME280;41619;42.816;23.226;2023-02-04T02:51:08;95138.75;;;0.59;69.69
55315;BME280;41619;42.816;23.226;2023-02-04T02:53:33;95132.28;;;0.60;70.10
55315;BME280;41619;42.816;23.226;2023-02-04T02:55:59;95134.97;;;0.60;69.72
55315;BME280;41619;42.816;23.226;2023-02-04T02:58:30;95123.56;;;0.64;70.45
55315;BME280;41619;42.816;23.226;2023-02-04T03:00:58;95118.66;;;0.66;69.92
55315;BME280;41619;42.816;23.226;2023-02-04T03:03:27;95125.00;;;0.70;70.00
55315;BME280;41619;42.816;23.226;2023-02-04T03:05:58;95127.09;;;0.73;70.03
55315;BME280;41619;42.816;23.226;2023-02-04T03:08:25;95143.13;;;0.78;70.26
55315;BME280;41619;42.816;23.226;2023-02-04T03:10:50;95130.13;;;0.80;70.08
55315;BME280;41619;42.816;23.226;2023-02-04T03:13:16;95119.53;;;0.83;70.31
55315;BME280;41619;42.816;23.226;2023-02-04T03:15:44;95111.94;;;0.85;69.78
55315;BME280;41619;42.816;23.226;2023-02-04T03:18:11;95113.19;;;0.88;70.50
55315;BME280;41619;42.816;23.226;2023-02-04T03:20:38;95115.25;;;0.91;70.00
55315;BME280;41619;42.816;23.226;2023-02-04T03:23:04;95111.97;;;0.94;70.12
55315;BME280;41619;42.816;23.226;2023-02-04T03:25:30;95105.47;;;0.95;70.47
55315;BME280;41619;42.816;23.226;2023-02-04T03:27:57;95100.88;;;0.96;70.14
55315;BME280;41619;42.816;23.226;2023-02-04T03:30:23;95104.06;;;0.98;70.39
55315;BME280;41619;42.816;23.226;2023-02-04T03:32:49;95100.25;;;0.99;70.36
55315;BME280;41619;42.816;23.226;2023-02-04T03:35:16;95091.84;;;1.00;70.50
55315;BME280;41619;42.816;23.226;2023-02-04T03:37:41;95070.28;;;1.00;70.69
55315;BME280;41619;42.816;23.226;2023-02-04T03:40:07;95072.19;;;1.00;70.18
55315;BME280;41619;42.816;23.226;2023-02-04T03:42:33;95086.16;;;1.02;70.30
55315;BME280;41619;42.816;23.226;2023-02-04T03:44:59;95087.72;;;1.03;70.47
55315;BME280;41619;42.816;23.226;2023-02-04T03:47:24;95072.84;;;1.05;70.56
55315;BME280;41619;42.816;23.226;2023-02-04T03:49:51;95070.28;;;1.09;70.55
55315;BME280;41619;42.816;23.226;2023-02-04T03:52:16;95079.66;;;1.11;70.54
55315;BME280;41619;42.816;23.226;2023-02-04T03:54:41;95064.31;;;1.12;70.53
55315;BME280;41619;42.816;23.226;2023-02-04T03:57:07;95067.00;;;1.12;70.50
55315;BME280;41619;42.816;23.226;2023-02-04T03:59:32;95060.78;;;1.11;70.20
55315;BME280;41619;42.816;23.226;2023-02-04T04:01:58;95064.59;;;1.10;70.46
55315;BME280;41619;42.816;23.226;2023-02-04T04:04:23;95059.50;;;1.09;70.71
55315;BME280;41619;42.816;23.226;2023-02-04T04:06:48;95059.69;;;1.04;70.76
55315;BME280;41619;42.816;23.226;2023-02-04T04:09:14;95061.91;;;1.02;71.65
55315;BME280;41619;42.816;23.226;2023-02-04T04:11:39;95062.53;;;0.99;71.52
55315;BME280;41619;42.816;23.226;2023-02-04T04:14:04;95051.28;;;0.97;71.97
55315;BME280;41619;42.816;23.226;2023-02-04T04:16:30;95048.91;;;0.95;71.48
55315;BME280;41619;42.816;23.226;2023-02-04T04:18:55;95053.81;;;0.93;71.81
55315;BME280;41619;42.816;23.226;2023-02-04T04:21:21;95066.44;;;0.93;71.80
55315;BME280;41619;42.816;23.226;2023-02-04T04:23:46;95063.75;;;0.93;72.35
55315;BME280;41619;42.816;23.226;2023-02-04T04:26:11;95068.06;;;0.94;72.70
55315;BME280;41619;42.816;23.226;2023-02-04T04:28:37;95062.16;;;0.91;72.18
55315;BME280;41619;42.816;23.226;2023-02-04T04:31:02;95054.88;;;0.92;72.52
55315;BME280;41619;42.816;23.226;2023-02-04T04:33:28;95053.81;;;0.93;73.20
55315;BME280;41619;42.816;23.226;2023-02-04T04:35:53;95050.28;;;0.93;72.88
55315;BME280;41619;42.816;23.226;2023-02-04T04:38:18;95049.50;;;0.92;73.40
55315;BME280;41619;42.816;23.226;2023-02-04T04:40:44;95053.28;;;0.91;72.80
55315;BME280;41619;42.816;23.226;2023-02-04T04:43:10;95063.28;;;0.90;73.07
55315;BME280;41619;42.816;23.226;2023-02-04T04:45:36;95060.28;;;0.92;73.66
55315;BME280;41619;42.816;23.226;2023-02-04T04:48:01;95060.59;;;0.90;73.96
55315;BME280;41619;42.816;23.226;2023-02-04T04:50:27;95063.59;;;0.89;73.76
55315;BME280;41619;42.816;23.226;2023-02-04T04:52:52;95072.78;;;0.88;73.78
55315;BME280;41619;42.816;23.226;2023-02-04T04:55:17;95066.91;;;0.86;73.60
55315;BME280;41619;42.816;23.226;2023-02-04T04:57:43;95056.78;;;0.83;74.18
55315;BME280;41619;42.816;23.226;2023-02-04T05:00:13;95060.25;;;0.83;74.19
55315;BME280;41619;42.816;23.226;2023-02-04T05:02:39;95067.56;;;0.83;74.50
55315;BME280;41619;42.816;23.226;2023-02-04T05:05:05;95080.72;;;0.84;73.93
55315;BME280;41619;42.816;23.226;2023-02-04T05:07:30;95086.41;;;0.83;74.15
55315;BME280;41619;42.816;23.226;2023-02-04T05:09:55;95095.59;;;0.82;74.45
55315;BME280;41619;42.816;23.226;2023-02-04T05:12:21;95110.19;;;0.81;74.50
55315;BME280;41619;42.816;23.226;2023-02-04T05:14:46;95108.59;;;0.80;74.87
55315;BME280;41619;42.816;23.226;2023-02-04T05:17:12;95111.28;;;0.80;74.51
55315;BME280;41619;42.816;23.226;2023-02-04T05:19:37;95105.59;;;0.81;75.37
55315;BME280;41619;42.816;23.226;2023-02-04T05:22:02;95107.16;;;0.82;75.01
55315;BME280;41619;42.816;23.226;2023-02-04T05:24:28;95120.31;;;0.84;75.26
55315;BME280;41619;42.816;23.226;2023-02-04T05:26:53;95111.63;;;0.87;74.96
55315;BME280;41619;42.816;23.226;2023-02-04T05:29:18;95120.19;;;0.89;75.53
55315;BME280;41619;42.816;23.226;2023-02-04T05:31:44;95114.78;;;0.89;74.94
55315;BME280;41619;42.816;23.226;2023-02-04T05:34:09;95118.59;;;0.88;75.58
55315;BME280;41619;42.816;23.226;2023-02-04T05:36:35;95114.78;;;0.89;74.82
55315;BME280;41619;42.816;23.226;2023-02-04T05:39:00;95111.78;;;0.90;75.35
55315;BME280;41619;42.816;23.226;2023-02-04T05:41:25;95114.66;;;0.94;74.65
55315;BME280;41619;42.816;23.226;2023-02-04T05:43:51;95107.84;;;0.97;74.87
55315;BME280;41619;42.816;23.226;2023-02-04T05:46:16;95099.47;;;0.98;74.87
55315;BME280;41619;42.816;23.226;2023-02-04T05:48:41;95081.22;;;0.95;74.65
55315;BME280;41619;42.816;23.226;2023-02-04T05:51:07;95085.16;;;0.89;74.59
55315;BME280;41619;42.816;23.226;2023-02-04T05:53:32;95098.59;;;0.80;75.05
55315;BME280;41619;42.816;23.226;2023-02-04T05:55:58;95099.84;;;0.74;75.12
55315;BME280;41619;42.816;23.226;2023-02-04T05:58:23;95096.97;;;0.71;74.77
55315;BME280;41619;42.816;23.226;2023-02-04T06:00:48;95105.38;;;0.69;75.11
55315;BME280;41619;42.816;23.226;2023-02-04T06:03:14;95110.75;;;0.69;75.11
55315;BME280;41619;42.816;23.226;2023-02-04T06:05:39;95106.84;;;0.75;74.98
55315;BME280;41619;42.816;23.226;2023-02-04T06:08:05;95116.03;;;0.83;75.31
55315;BME280;41619;42.816;23.226;2023-02-04T06:10:30;95119.88;;;0.90;75.11
55315;BME280;41619;42.816;23.226;2023-02-04T06:12:55;95106.13;;;1.01;74.86
55315;BME280;41619;42.816;23.226;2023-02-04T06:15:21;95097.72;;;1.11;74.68
55315;BME280;41619;42.816;23.226;2023-02-04T06:17:46;95104.09;;;1.15;74.82
55315;BME280;41619;42.816;23.226;2023-02-04T06:20:13;95103.78;;;1.16;74.87
55315;BME280;41619;42.816;23.226;2023-02-04T06:22:39;95097.28;;;1.17;74.44
55315;BME280;41619;42.816;23.226;2023-02-04T06:25:05;95095.06;;;1.19;74.72
55315;BME280;41619;42.816;23.226;2023-02-04T06:27:30;95103.31;;;1.23;74.51
55315;BME280;41619;42.816;23.226;2023-02-04T06:29:56;95112.66;;;1.26;74.78
55315;BME280;41619;42.816;23.226;2023-02-04T06:32:21;95108.88;;;1.27;74.13
55315;BME280;41619;42.816;23.226;2023-02-04T06:34:47;95112.53;;;1.31;74.95
55315;BME280;41619;42.816;23.226;2023-02-04T06:37:13;95110.81;;;1.35;74.67
55315;BME280;41619;42.816;23.226;2023-02-04T06:39:40;95117.31;;;1.42;74.46
55315;BME280;41619;42.816;23.226;2023-02-04T06:42:05;95102.75;;;1.52;74.77
55315;BME280;41619;42.816;23.226;2023-02-04T06:44:30;95103.06;;;1.68;74.36
55315;BME280;41619;42.816;23.226;2023-02-04T06:46:56;95105.13;;;1.88;74.63
55315;BME280;41619;42.816;23.226;2023-02-04T06:49:21;95100.03;;;1.95;73.98
55315;BME280;41619;42.816;23.226;2023-02-04T06:51:49;95104.63;;;2.03;73.86
55315;BME280;41619;42.816;23.226;2023-02-04T06:54:15;95108.59;;;2.15;73.48
55315;BME280;41619;42.816;23.226;2023-02-04T06:56:40;95110.38;;;2.57;73.89
55315;BME280;41619;42.816;23.226;2023-02-04T06:59:08;95113.44;;;3.53;73.07
55315;BME280;41619;42.816;23.226;2023-02-04T07:01:33;95113.59;;;4.52;71.76
55315;BME280;41619;42.816;23.226;2023-02-04T07:03:58;95112.56;;;5.26;70.24
55315;BME280;41619;42.816;23.226;2023-02-04T07:06:24;95104.34;;;6.55;68.23
55315;BME280;41619;42.816;23.226;2023-02-04T07:08:49;95098.50;;;7.83;66.25
55315;BME280;41619;42.816;23.226;2023-02-04T07:11:14;95099.84;;;8.47;63.88
55315;BME280;41619;42.816;23.226;2023-02-04T07:13:40;95108.22;;;9.46;62.93
55315;BME280;41619;42.816;23.226;2023-02-04T07:16:06;95102.94;;;10.73;60.77
55315;BME280;41619;42.816;23.226;2023-02-04T07:18:32;95084.34;;;12.54;58.14
55315;BME280;41619;42.816;23.226;2023-02-04T07:20:57;95084.44;;;14.24;54.90
55315;BME280;41619;42.816;23.226;2023-02-04T07:23:22;95079.16;;;15.42;52.26
55315;BME280;41619;42.816;23.226;2023-02-04T07:25:49;95061.16;;;16.54;50.25
55315;BME280;41619;42.816;23.226;2023-02-04T07:28:17;95070.09;;;17.53;48.76
55315;BME280;41619;42.816;23.226;2023-02-04T07:30:42;95056.25;;;18.67;46.71
55315;BME280;41619;42.816;23.226;2023-02-04T07:33:08;95066.81;;;18.92;45.38
55315;BME280;41619;42.816;23.226;2023-02-04T07:35:33;95068.22;;;19.36;44.68
55315;BME280;41619;42.816;23.226;2023-02-04T07:37:59;95067.59;;;18.09;44.89
55315;BME280;41619;42.816;23.226;2023-02-04T07:40:24;95065.47;;;15.80;47.21
55315;BME280;41619;42.816;23.226;2023-02-04T07:42:49;95068.84;;;13.68;49.18
55315;BME280;41619;42.816;23.226;2023-02-04T07:45:15;95070.72;;;11.95;51.48
55315;BME280;41619;42.816;23.226;2023-02-04T07:47:40;95067.56;;;10.57;53.38
55315;BME280;41619;42.816;23.226;2023-02-04T07:50:06;95072.81;;;9.79;54.41
55315;BME280;41619;42.816;23.226;2023-02-04T07:52:31;95062.16;;;9.70;54.61
55315;BME280;41619;42.816;23.226;2023-02-04T07:54:56;95071.34;;;10.15;53.52
55315;BME280;41619;42.816;23.226;2023-02-04T07:57:22;95066.09;;;10.03;53.05
55315;BME280;41619;42.816;23.226;2023-02-04T07:59:47;95063.88;;;9.29;53.14
55315;BME280;41619;42.816;23.226;2023-02-04T08:02:12;95064.09;;;8.52;54.00
55315;BME280;41619;42.816;23.226;2023-02-04T08:04:38;95077.06;;;7.81;54.94
55315;BME280;41619;42.816;23.226;2023-02-04T08:07:03;95074.09;;;7.20;55.71
55315;BME280;41619;42.816;23.226;2023-02-04T08:09:29;95071.63;;;6.67;56.58
55315;BME280;41619;42.816;23.226;2023-02-04T08:11:54;95085.53;;;6.34;57.14
55315;BME280;41619;42.816;23.226;2023-02-04T08:14:20;95079.28;;;6.06;57.19
55315;BME280;41619;42.816;23.226;2023-02-04T08:16:45;95075.03;;;5.81;57.67
55315;BME280;41619;42.816;23.226;2023-02-04T08:19:11;95082.44;;;5.56;58.15
55315;BME280;41619;42.816;23.226;2023-02-04T08:21:43;95087.22;;;5.34;58.29
55315;BME280;41619;42.816;23.226;2023-02-04T08:24:09;95078.63;;;5.20;57.92
55315;BME280;41619;42.816;23.226;2023-02-04T08:26:34;95077.50;;;4.97;58.36
55315;BME280;41619;42.816;23.226;2023-02-04T08:28:59;95082.69;;;4.77;58.57
55315;BME280;41619;42.816;23.226;2023-02-04T08:31:25;95076.91;;;4.67;59.01
55315;BME280;41619;42.816;23.226;2023-02-04T08:33:50;95077.00;;;4.58;58.98
55315;BME280;41619;42.816;23.226;2023-02-04T08:36:15;95068.19;;;4.49;59.54
55315;BME280;41619;42.816;23.226;2023-02-04T08:38:41;95070.97;;;4.40;59.56
55315;BME280;41619;42.816;23.226;2023-02-04T08:41:08;95077.75;;;4.34;59.57
55315;BME280;41619;42.816;23.226;2023-02-04T08:43:34;95073.53;;;4.24;60.30
55315;BME280;41619;42.816;23.226;2023-02-04T08:45:59;95074.75;;;4.15;60.38
55315;BME280;41619;42.816;23.226;2023-02-04T08:48:24;95067.47;;;4.07;60.57
55315;BME280;41619;42.816;23.226;2023-02-04T08:50:50;95069.59;;;4.01;61.17
55315;BME280;41619;42.816;23.226;2023-02-04T08:53:15;95074.91;;;3.98;61.29
55315;BME280;41619;42.816;23.226;2023-02-04T08:55:40;95070.94;;;3.95;61.55
55315;BME280;41619;42.816;23.226;2023-02-04T08:58:06;95070.34;;;3.89;61.86
55315;BME280;41619;42.816;23.226;2023-02-04T09:00:31;95070.41;;;3.81;62.24
55315;BME280;41619;42.816;23.226;2023-02-04T09:02:57;95074.50;;;3.66;62.69
55315;BME280;41619;42.816;23.226;2023-02-04T09:05:22;95068.25;;;3.53;63.00
55315;BME280;41619;42.816;23.226;2023-02-04T09:07:47;95076.22;;;3.50;63.32
55315;BME280;41619;42.816;23.226;2023-02-04T09:10:13;95075.97;;;3.43;63.51
55315;BME280;41619;42.816;23.226;2023-02-04T09:12:39;95070.69;;;3.46;63.73
55315;BME280;41619;42.816;23.226;2023-02-04T09:15:06;95071.47;;;3.47;63.95
55315;BME280;41619;42.816;23.226;2023-02-04T09:17:31;95075.28;;;3.46;64.31
55315;BME280;41619;42.816;23.226;2023-02-04T09:19:58;95070.34;;;3.48;64.40
55315;BME280;41619;42.816;23.226;2023-02-04T09:22:23;95071.59;;;3.50;64.28
55315;BME280;41619;42.816;23.226;2023-02-04T09:24:48;95071.75;;;3.54;64.42
55315;BME280;41619;42.816;23.226;2023-02-04T09:27:14;95072.84;;;3.53;64.69
55315;BME280;41619;42.816;23.226;2023-02-04T09:29:39;95080.38;;;3.47;64.57
55315;BME280;41619;42.816;23.226;2023-02-04T09:32:04;95077.09;;;3.42;65.15
55315;BME280;41619;42.816;23.226;2023-02-04T09:34:31;95075.81;;;3.39;65.33
55315;BME280;41619;42.816;23.226;2023-02-04T09:36:56;95072.78;;;3.41;65.47
55315;BME280;41619;42.816;23.226;2023-02-04T09:39:21;95074.84;;;3.44;65.80
55315;BME280;41619;42.816;23.226;2023-02-04T09:41:47;95072.91;;;3.44;65.67
55315;BME280;41619;42.816;23.226;2023-02-04T09:44:15;95074.63;;;3.49;65.87
55315;BME280;41619;42.816;23.226;2023-02-04T09:46:43;95064.16;;;3.47;66.16
55315;BME280;41619;42.816;23.226;2023-02-04T09:49:10;95060.97;;;3.45;66.23
55315;BME280;41619;42.816;23.226;2023-02-04T09:51:35;95049.25;;;3.41;66.29
55315;BME280;41619;42.816;23.226;2023-02-04T09:54:20;95054.31;;;3.43;66.58
55315;BME280;41619;42.816;23.226;2023-02-04T09:56:46;95054.78;;;3.45;66.59
55315;BME280;41619;42.816;23.226;2023-02-04T09:59:14;95047.19;;;3.38;67.12
55315;BME280;41619;42.816;23.226;2023-02-04T10:01:40;95041.78;;;3.38;67.39
55315;BME280;41619;42.816;23.226;2023-02-04T10:04:09;95045.75;;;3.41;67.53
55315;BME280;41619;42.816;23.226;2023-02-04T10:06:37;95040.00;;;3.42;67.75
55315;BME280;41619;42.816;23.226;2023-02-04T10:09:03;95039.09;;;3.38;68.14
55315;BME280;41619;42.816;23.226;2023-02-04T10:11:31;95037.53;;;3.28;68.08
55315;BME280;41619;42.816;23.226;2023-02-04T10:13:58;95029.75;;;3.27;68.63
55315;BME280;41619;42.816;23.226;2023-02-04T10:16:27;95030.44;;;3.24;68.92
55315;BME280;41619;42.816;23.226;2023-02-04T10:19:07;95024.75;;;3.17;68.95
55315;BME280;41619;42.816;23.226;2023-02-04T10:21:36;95019.66;;;3.15;69.31
55315;BME280;41619;42.816;23.226;2023-02-04T10:24:03;95018.34;;;3.21;69.54
55315;BME280;41619;42.816;23.226;2023-02-04T10:26:31;95013.44;;;3.15;69.87
55315;BME280;41619;42.816;23.226;2023-02-04T10:29:04;95007.31;;;3.06;69.85
55315;BME280;41619;42.816;23.226;2023-02-04T10:34:14;95009.69;;;3.07;70.91
55315;BME280;41619;42.816;23.226;2023-02-04T10:36:42;95006.31;;;3.10;71.06
55315;BME280;41619;42.816;23.226;2023-02-04T10:39:22;95004.41;;;3.11;70.80
55315;BME280;41619;42.816;23.226;2023-02-04T10:41:55;95014.91;;;3.12;70.85
55315;BME280;41619;42.816;23.226;2023-02-04T10:44:29;94999.66;;;3.08;70.88
55315;BME280;41619;42.816;23.226;2023-02-04T10:47:06;95000.66;;;3.03;71.45
55315;BME280;41619;42.816;23.226;2023-02-04T10:49:39;94992.09;;;3.01;71.43
55315;BME280;41619;42.816;23.226;2023-02-04T10:52:15;94998.41;;;3.05;72.06
55315;BME280;41619;42.816;23.226;2023-02-04T10:54:41;94998.69;;;3.12;72.08
55315;BME280;41619;42.816;23.226;2023-02-04T10:57:26;94992.94;;;3.14;71.96
55315;BME280;41619;42.816;23.226;2023-02-04T10:59:55;94990.84;;;3.19;71.96
55315;BME280;41619;42.816;23.226;2023-02-04T11:05:19;94992.47;;;3.32;72.41
55315;BME280;41619;42.816;23.226;2023-02-04T11:07:46;94984.56;;;3.27;72.04
55315;BME280;41619;42.816;23.226;2023-02-04T11:10:23;94988.84;;;3.28;72.16
55315;BME280;41619;42.816;23.226;2023-02-04T11:18:07;94979.50;;;3.26;72.38
55315;BME280;41619;42.816;23.226;2023-02-04T11:20:34;94974.97;;;3.18;72.40
55315;BME280;41619;42.816;23.226;2023-02-04T11:23:33;94978.63;;;3.13;72.11
55315;BME280;41619;42.816;23.226;2023-02-04T11:26:33;94975.91;;;3.13;72.22
55315;BME280;41619;42.816;23.226;2023-02-04T11:37:16;94973.38;;;3.17;72.85
55315;BME280;41619;42.816;23.226;2023-02-04T11:39:48;94966.06;;;3.17;73.06
55315;BME280;41619;42.816;23.226;2023-02-04T11:42:23;94972.50;;;3.25;72.80
55315;BME280;41619;42.816;23.226;2023-02-04T11:44:52;94965.44;;;3.32;72.84
55315;BME280;41619;42.816;23.226;2023-02-04T11:47:19;94966.88;;;3.30;72.67
55315;BME280;41619;42.816;23.226;2023-02-04T11:49:53;94965.50;;;3.24;72.73
55315;BME280;41619;42.816;23.226;2023-02-04T11:52:19;94958.25;;;3.16;72.94
55315;BME280;41619;42.816;23.226;2023-02-04T11:54:54;94960.03;;;3.12;73.11
55315;BME280;41619;42.816;23.226;2023-02-04T11:57:19;94957.53;;;3.07;73.47
55315;BME280;41619;42.816;23.226;2023-02-04T11:59:45;94954.69;;;3.03;73.33
55315;BME280;41619;42.816;23.226;2023-02-04T12:02:19;94949.28;;;3.03;73.51
55315;BME280;41619;42.816;23.226;2023-02-04T12:05:10;94946.25;;;3.04;73.41
55315;BME280;41619;42.816;23.226;2023-02-04T12:07:35;94942.88;;;3.08;73.53
55315;BME280;41619;42.816;23.226;2023-02-04T12:10:23;94944.00;;;3.07;73.83
55315;BME280;41619;42.816;23.226;2023-02-04T12:12:52;94941.31;;;3.07;74.02
55315;BME280;41619;42.816;23.226;2023-02-04T12:15:38;94943.34;;;3.10;74.06
55315;BME280;41619;42.816;23.226;2023-02-04T12:18:05;94942.50;;;3.18;74.06
55315;BME280;41619;42.816;23.226;2023-02-04T12:20:35;94940.06;;;3.25;74.35
55315;BME280;41619;42.816;23.226;2023-02-04T12:23:01;94931.81;;;3.21;74.18
55315;BME280;41619;42.816;23.226;2023-02-04T12:25:27;94935.66;;;3.20;74.23
55315;BME280;41619;42.816;23.226;2023-02-04T12:27:54;94929.44;;;3.20;73.85
55315;BME280;41619;42.816;23.226;2023-02-04T12:30:24;94934.06;;;3.19;74.13
55315;BME280;41619;42.816;23.226;2023-02-04T12:32:51;94932.81;;;3.17;74.06
55315;BME280;41619;42.816;23.226;2023-02-04T12:35:16;94939.31;;;3.16;74.33
55315;BME280;41619;42.816;23.226;2023-02-04T12:37:42;94928.84;;;3.14;74.00
55315;BME280;41619;42.816;23.226;2023-02-04T12:40:13;94925.50;;;3.17;74.36
55315;BME280;41619;42.816;23.226;2023-02-04T12:42:39;94924.69;;;3.17;74.36
55315;BME280;41619;42.816;23.226;2023-02-04T12:45:05;94927.06;;;3.18;74.19
55315;BME280;41619;42.816;23.226;2023-02-04T12:47:31;94926.19;;;3.26;74.33
55315;BME280;41619;42.816;23.226;2023-02-04T12:49:56;94925.31;;;3.34;74.59
55315;BME280;41619;42.816;23.226;2023-02-04T12:52:21;94936.97;;;3.35;74.22
55315;BME280;41619;42.816;23.226;2023-02-04T12:54:47;94928.50;;;3.37;74.41
55315;BME280;41619;42.816;23.226;2023-02-04T12:57:13;94931.66;;;3.39;73.99
55315;BME280;41619;42.816;23.226;2023-02-04T12:59:43;94934.38;;;3.39;74.18
55315;BME280;41619;42.816;23.226;2023-02-04T13:02:09;94932.78;;;3.38;74.39
55315;BME280;41619;42.816;23.226;2023-02-04T13:04:35;94938.66;;;3.40;74.20
55315;BME280;41619;42.816;23.226;2023-02-04T13:07:00;94935.97;;;3.40;74.45
55315;BME280;41619;42.816;23.226;2023-02-04T13:09:26;94931.78;;;3.42;74.29
55315;BME280;41619;42.816;23.226;2023-02-04T13:11:51;94931.25;;;3.49;74.15
55315;BME280;41619;42.816;23.226;2023-02-04T13:14:17;94927.06;;;3.51;73.61
55315;BME280;41619;42.816;23.226;2023-02-04T13:16:42;94934.34;;;3.59;73.91